Time,TemperatureF,DewpointF,PressureIn,WindDirection,WindDirectionDegrees,WindSpeedMPH,WindSpeedGustMPH,Humidity,HourlyPrecipIn,Conditions,Clouds,dailyrainin,SolarRadiationWatts/m^2,SoftwareType,DateUTC
2013-01-14 00:03:00,59.0,56.0,-100.00,ESE,103,2.0,6.0,91,-99.99,,,0.00,1.000000,,2013-01-14 00:03:00,
2013-01-14 00:11:00,59.0,55.0,-100.00,SE,143,1.0,5.0,88,0.00,,,0.00,0.000000,,2013-01-14 00:11:00,
2013-01-14 00:43:00,59.0,55.0,-100.00,SE,143,1.0,5.0,88,0.00,,,0.00,0.000000,,2013-01-14 00:43:00,
2013-01-14 00:53:00,59.0,55.0,-100.00,SE,143,1.0,5.0,88,0.00,,,0.00,0.000000,,2013-01-14 00:53:00,
2013-01-14 01:03:00,59.0,55.0,-100.00,SE,143,1.0,5.0,88,0.00,,,0.00,0.000000,,2013-01-14 01:03:00,
2013-01-14 01:11:00,62.0,54.0,-100.00,ESE,114,3.0,7.0,74,0.00,,,0.00,0.000000,,2013-01-14 01:11:00,
2013-01-14 01:42:00,62.0,54.0,-100.00,ESE,114,3.0,7.0,74,0.00,,,0.00,0.000000,,2013-01-14 01:42:00,
2013-01-14 01:53:00,62.0,54.0,-100.00,ESE,114,3.0,7.0,74,0.00,,,0.00,0.000000,,2013-01-14 01:53:00,
2013-01-14 02:03:00,62.0,54.0,-100.00,ESE,114,3.0,7.0,74,0.00,,,0.00,0.000000,,2013-01-14 02:03:00,
2013-01-14 02:11:00,59.0,53.0,-100.00,ENE,68,2.0,6.0,81,0.01,,,0.01,0.000000,,2013-01-14 02:11:00,
2013-01-14 02:43:00,59.0,53.0,-100.00,ENE,68,2.0,6.0,81,0.01,,,0.01,0.000000,,2013-01-14 02:43:00,
2013-01-14 02:53:00,59.0,53.0,-100.00,ENE,68,2.0,6.0,81,0.01,,,0.01,0.000000,,2013-01-14 02:53:00,
2013-01-14 03:03:00,59.0,53.0,-100.00,ENE,68,2.0,6.0,81,0.01,,,0.01,0.000000,,2013-01-14 03:03:00,
2013-01-14 03:11:00,57.0,56.0,-100.00,South,191,1.0,7.0,96,0.12,,,0.13,0.000000,,2013-01-14 03:11:00,
2013-01-14 03:33:00,57.0,56.0,-100.00,South,191,1.0,7.0,96,0.12,,,0.13,0.000000,,2013-01-14 03:33:00,
2013-01-14 03:43:00,57.0,56.0,-100.00,South,191,1.0,7.0,96,0.12,,,0.13,0.000000,,2013-01-14 03:43:00,
2013-01-14 03:53:00,57.0,56.0,-100.00,South,191,1.0,7.0,96,0.12,,,0.13,0.000000,,2013-01-14 03:53:00,
2013-01-14 04:03:00,57.0,56.0,-100.00,South,191,1.0,7.0,96,0.12,,,0.13,0.000000,,2013-01-14 04:03:00,
2013-01-14 04:11:00,57.0,56.0,-100.00,ENE,64,3.0,6.0,98,0.17,,,0.30,0.000000,,2013-01-14 04:11:00,
2013-01-14 04:32:00,57.0,56.0,-100.00,ENE,64,3.0,6.0,98,0.17,,,0.30,0.000000,,2013-01-14 04:32:00,
2013-01-14 04:42:00,57.0,56.0,-100.00,ENE,64,3.0,6.0,98,0.17,,,0.30,0.000000,,2013-01-14 04:42:00,
2013-01-14 04:53:00,57.0,56.0,-100.00,ENE,64,3.0,6.0,98,0.17,,,0.30,0.000000,,2013-01-14 04:53:00,
2013-01-14 05:04:00,57.0,56.0,-100.00,ENE,64,3.0,6.0,98,0.17,,,0.30,0.000000,,2013-01-14 05:04:00,
2013-01-14 05:11:00,57.0,56.0,-100.00,East,91,2.0,9.0,96,0.04,,,0.34,0.000000,,2013-01-14 05:11:00,
2013-01-14 05:33:00,57.0,56.0,-100.00,East,91,2.0,9.0,96,0.04,,,0.34,0.000000,,2013-01-14 05:33:00,
2013-01-14 05:43:00,57.0,56.0,-100.00,East,91,2.0,9.0,96,0.04,,,0.34,0.000000,,2013-01-14 05:43:00,
2013-01-14 05:53:00,57.0,56.0,-100.00,East,91,2.0,9.0,96,0.04,,,0.34,0.000000,,2013-01-14 05:53:00,
2013-01-14 06:03:00,57.0,56.0,-100.00,East,91,2.0,9.0,96,0.04,,,0.34,0.000000,,2013-01-14 06:03:00,
2013-01-14 06:11:00,56.0,55.0,-100.00,NNW,334,2.0,7.0,96,0.10,,,0.44,0.000000,,2013-01-14 06:11:00,
2013-01-14 06:33:00,56.0,55.0,-100.00,NNW,334,2.0,7.0,96,0.10,,,0.44,0.000000,,2013-01-14 06:33:00,
2013-01-14 06:43:00,56.0,55.0,-100.00,NNW,334,2.0,7.0,96,0.10,,,0.44,0.000000,,2013-01-14 06:43:00,
2013-01-14 06:53:00,56.0,55.0,-100.00,NNW,334,2.0,7.0,96,0.10,,,0.44,0.000000,,2013-01-14 06:53:00,
2013-01-14 07:02:00,56.0,55.0,-100.00,NNW,334,2.0,7.0,96,0.10,,,0.44,0.000000,,2013-01-14 07:02:00,
2013-01-14 07:11:00,54.0,53.0,-100.00,ESE,116,4.0,7.0,98,0.00,,,0.44,0.000000,,2013-01-14 07:11:00,
2013-01-14 07:33:00,54.0,53.0,-100.00,ESE,116,4.0,7.0,98,0.00,,,0.44,0.000000,,2013-01-14 07:33:00,
2013-01-14 07:43:00,54.0,53.0,-100.00,ESE,116,4.0,7.0,98,0.00,,,0.44,0.000000,,2013-01-14 07:43:00,
2013-01-14 07:53:00,54.0,53.0,-100.00,ESE,116,4.0,7.0,98,0.00,,,0.44,0.000000,,2013-01-14 07:53:00,
2013-01-14 08:02:00,54.0,53.0,-100.00,ESE,116,4.0,7.0,98,0.00,,,0.44,0.000000,,2013-01-14 08:02:00,
2013-01-14 08:11:00,47.0,46.0,-100.00,SE,125,6.0,10.0,97,0.03,,,0.47,0.000000,,2013-01-14 08:11:00,
2013-01-14 08:33:00,47.0,46.0,-100.00,SE,125,6.0,10.0,97,0.03,,,0.47,0.000000,,2013-01-14 08:33:00,
2013-01-14 08:43:00,47.0,46.0,-100.00,SE,125,6.0,10.0,97,0.03,,,0.47,0.000000,,2013-01-14 08:43:00,
2013-01-14 08:53:00,47.0,46.0,-100.00,SE,125,6.0,10.0,97,0.03,,,0.47,0.000000,,2013-01-14 08:53:00,
2013-01-14 09:03:00,47.0,46.0,-100.00,SE,125,6.0,10.0,97,0.03,,,0.47,0.000000,,2013-01-14 09:03:00,
2013-01-14 09:11:00,42.0,41.0,-100.00,ESE,123,4.0,11.0,96,0.13,,,0.60,0.000000,,2013-01-14 09:11:00,
2013-01-14 09:34:00,42.0,41.0,-100.00,ESE,123,4.0,11.0,96,0.13,,,0.60,0.000000,,2013-01-14 09:34:00,
2013-01-14 09:43:00,42.0,41.0,-100.00,ESE,123,4.0,11.0,96,0.13,,,0.60,0.000000,,2013-01-14 09:43:00,
2013-01-14 09:53:00,42.0,41.0,-100.00,ESE,123,4.0,11.0,96,0.13,,,0.60,0.000000,,2013-01-14 09:53:00,
2013-01-14 10:02:00,42.0,41.0,-100.00,ESE,123,4.0,11.0,96,0.13,,,0.60,0.000000,,2013-01-14 10:02:00,
2013-01-14 10:11:00,40.0,39.0,-100.00,SE,124,4.0,12.0,97,0.05,,,0.65,0.000000,,2013-01-14 10:11:00,
2013-01-14 10:33:00,40.0,39.0,-100.00,SE,124,4.0,12.0,97,0.05,,,0.65,0.000000,,2013-01-14 10:33:00,
2013-01-14 10:43:00,40.0,39.0,-100.00,SE,124,4.0,12.0,97,0.05,,,0.65,0.000000,,2013-01-14 10:43:00,
2013-01-14 10:53:00,40.0,39.0,-100.00,SE,124,4.0,12.0,97,0.05,,,0.65,0.000000,,2013-01-14 10:53:00,
2013-01-14 11:02:00,40.0,39.0,-100.00,SE,124,4.0,12.0,97,0.05,,,0.65,0.000000,,2013-01-14 11:02:00,
2013-01-14 11:11:00,40.0,39.0,-100.00,ESE,118,3.0,9.0,97,0.03,,,0.68,0.000000,,2013-01-14 11:11:00,
2013-01-14 11:43:00,40.0,39.0,-100.00,ESE,118,3.0,9.0,97,0.03,,,0.68,0.000000,,2013-01-14 11:43:00,
2013-01-14 11:53:00,40.0,39.0,-100.00,ESE,118,3.0,9.0,97,0.03,,,0.68,0.000000,,2013-01-14 11:53:00,
2013-01-14 12:03:00,40.0,39.0,-100.00,ESE,118,3.0,9.0,97,0.03,,,0.68,0.000000,,2013-01-14 12:03:00,
2013-01-14 12:11:00,39.0,38.0,-100.00,SE,130,4.0,8.0,98,0.01,,,0.69,0.000000,,2013-01-14 12:11:00,
2013-01-14 12:33:00,39.0,38.0,-100.00,SE,130,4.0,8.0,98,0.01,,,0.69,0.000000,,2013-01-14 12:33:00,
2013-01-14 12:43:00,39.0,38.0,-100.00,SE,130,4.0,8.0,98,0.01,,,0.69,0.000000,,2013-01-14 12:43:00,
2013-01-14 12:53:00,39.0,38.0,-100.00,SE,130,4.0,8.0,98,0.01,,,0.69,0.000000,,2013-01-14 12:53:00,
2013-01-14 13:03:00,39.0,38.0,-100.00,SE,130,4.0,8.0,98,0.01,,,0.69,0.000000,,2013-01-14 13:03:00,
2013-01-14 13:11:00,39.0,38.0,-100.00,SE,138,4.0,9.0,97,0.01,,,0.70,2.000000,,2013-01-14 13:11:00,
2013-01-14 13:34:00,39.0,38.0,-100.00,SE,138,4.0,9.0,97,0.01,,,0.70,2.000000,,2013-01-14 13:34:00,
2013-01-14 13:43:00,39.0,38.0,-100.00,SE,138,4.0,9.0,97,0.01,,,0.70,2.000000,,2013-01-14 13:43:00,
2013-01-14 13:53:00,39.0,38.0,-100.00,SE,138,4.0,9.0,97,0.01,,,0.70,2.000000,,2013-01-14 13:53:00,
2013-01-14 14:03:00,39.0,38.0,-100.00,SE,138,4.0,9.0,97,0.01,,,0.70,2.000000,,2013-01-14 14:03:00,
2013-01-14 14:11:00,39.0,38.0,-100.00,SSE,154,4.0,7.0,98,0.00,,,0.70,22.000000,,2013-01-14 14:11:00,
2013-01-14 14:33:00,39.0,38.0,-100.00,SSE,154,4.0,7.0,98,0.00,,,0.70,22.000000,,2013-01-14 14:33:00,
2013-01-14 14:43:00,39.0,38.0,-100.00,SSE,154,4.0,7.0,98,0.00,,,0.70,22.000000,,2013-01-14 14:43:00,
2013-01-14 14:53:00,39.0,38.0,-100.00,SSE,154,4.0,7.0,98,0.00,,,0.70,22.000000,,2013-01-14 14:53:00,
2013-01-14 15:03:00,39.0,38.0,-100.00,SSE,154,4.0,7.0,98,0.00,,,0.70,22.000000,,2013-01-14 15:03:00,
2013-01-14 15:11:00,39.0,38.0,-100.00,SE,127,3.0,9.0,97,0.01,,,0.71,59.000000,,2013-01-14 15:11:00,
2013-01-14 15:34:00,39.0,38.0,-100.00,SE,127,3.0,9.0,97,0.01,,,0.71,59.000000,,2013-01-14 15:34:00,
2013-01-14 15:43:00,39.0,38.0,-100.00,SE,127,3.0,9.0,97,0.01,,,0.71,59.000000,,2013-01-14 15:43:00,
2013-01-14 15:53:00,39.0,38.0,-100.00,SE,127,3.0,9.0,97,0.01,,,0.71,59.000000,,2013-01-14 15:53:00,
2013-01-14 16:03:00,39.0,38.0,-100.00,SE,127,3.0,9.0,97,0.01,,,0.71,59.000000,,2013-01-14 16:03:00,
2013-01-14 16:11:00,39.0,38.0,-100.00,SE,124,4.0,8.0,97,0.00,,,0.71,79.000000,,2013-01-14 16:11:00,
2013-01-14 16:33:00,39.0,38.0,-100.00,SE,124,4.0,8.0,97,0.00,,,0.71,79.000000,,2013-01-14 16:33:00,
2013-01-14 16:43:00,39.0,38.0,-100.00,SE,124,4.0,8.0,97,0.00,,,0.71,79.000000,,2013-01-14 16:43:00,
2013-01-14 16:53:00,39.0,38.0,-100.00,SE,124,4.0,8.0,97,0.00,,,0.71,79.000000,,2013-01-14 16:53:00,
2013-01-14 17:03:00,39.0,38.0,-100.00,SE,124,4.0,8.0,97,0.00,,,0.71,79.000000,,2013-01-14 17:03:00,
2013-01-14 17:11:00,39.0,38.0,-100.00,SSE,163,5.0,9.0,97,0.01,,,0.72,78.000000,,2013-01-14 17:11:00,
2013-01-14 17:34:00,39.0,38.0,-100.00,SSE,163,5.0,9.0,97,0.01,,,0.72,78.000000,,2013-01-14 17:34:00,
2013-01-14 17:43:00,39.0,38.0,-100.00,SSE,163,5.0,9.0,97,0.01,,,0.72,78.000000,,2013-01-14 17:43:00,
2013-01-14 17:54:00,39.0,38.0,-100.00,SSE,163,5.0,9.0,97,0.01,,,0.72,78.000000,,2013-01-14 17:54:00,
2013-01-14 18:03:00,39.0,38.0,-100.00,SSE,163,5.0,9.0,97,0.01,,,0.72,78.000000,,2013-01-14 18:03:00,
2013-01-14 18:11:00,39.0,38.0,-100.00,SSW,199,5.0,9.0,97,0.00,,,0.72,89.000000,,2013-01-14 18:11:00,
2013-01-14 18:33:00,39.0,38.0,-100.00,SSW,199,5.0,9.0,97,0.00,,,0.72,89.000000,,2013-01-14 18:33:00,
2013-01-14 18:43:00,39.0,38.0,-100.00,SSW,199,5.0,9.0,97,0.00,,,0.72,89.000000,,2013-01-14 18:43:00,
2013-01-14 18:53:00,39.0,38.0,-100.00,SSW,199,5.0,9.0,97,0.00,,,0.72,89.000000,,2013-01-14 18:53:00,
2013-01-14 19:03:00,39.0,38.0,-100.00,SSW,199,5.0,9.0,97,0.00,,,0.72,89.000000,,2013-01-14 19:03:00,
2013-01-14 19:11:00,39.0,38.0,-100.00,South,177,4.0,7.0,98,0.01,,,0.73,82.000000,,2013-01-14 19:11:00,
2013-01-14 19:43:00,39.0,38.0,-100.00,South,177,4.0,7.0,98,0.01,,,0.73,82.000000,,2013-01-14 19:43:00,
2013-01-14 19:53:00,39.0,38.0,-100.00,South,177,4.0,7.0,98,0.01,,,0.73,82.000000,,2013-01-14 19:53:00,
2013-01-14 20:04:00,39.0,38.0,-100.00,South,177,4.0,7.0,98,0.01,,,0.73,82.000000,,2013-01-14 20:04:00,
2013-01-14 20:11:00,39.0,38.0,-100.00,South,188,3.0,7.0,98,0.00,,,0.73,43.000000,,2013-01-14 20:11:00,
2013-01-14 20:33:00,39.0,38.0,-100.00,South,188,3.0,7.0,98,0.00,,,0.73,43.000000,,2013-01-14 20:33:00,
2013-01-14 20:43:00,39.0,38.0,-100.00,South,188,3.0,7.0,98,0.00,,,0.73,43.000000,,2013-01-14 20:43:00,
2013-01-14 20:53:00,39.0,38.0,-100.00,South,188,3.0,7.0,98,0.00,,,0.73,43.000000,,2013-01-14 20:53:00,
2013-01-14 21:03:00,39.0,38.0,-100.00,South,188,3.0,7.0,98,0.00,,,0.73,43.000000,,2013-01-14 21:03:00,
2013-01-14 21:11:00,39.0,38.0,-100.00,SSE,160,4.0,8.0,98,0.02,,,0.75,18.000000,,2013-01-14 21:11:00,
2013-01-14 21:33:00,39.0,38.0,-100.00,SSE,160,4.0,8.0,98,0.02,,,0.75,18.000000,,2013-01-14 21:33:00,
2013-01-14 21:43:00,39.0,38.0,-100.00,SSE,160,4.0,8.0,98,0.02,,,0.75,18.000000,,2013-01-14 21:43:00,
2013-01-14 21:53:00,39.0,38.0,-100.00,SSE,160,4.0,8.0,98,0.02,,,0.75,18.000000,,2013-01-14 21:53:00,
2013-01-14 22:03:00,39.0,38.0,-100.00,SSE,160,4.0,8.0,98,0.02,,,0.75,18.000000,,2013-01-14 22:03:00,
2013-01-14 22:11:00,37.0,36.0,-100.00,ESE,110,4.0,8.0,98,0.10,,,-99.99,10.000000,,2013-01-14 22:11:00,
2013-01-14 22:33:00,37.0,36.0,-100.00,ESE,110,4.0,8.0,98,0.10,,,-99.99,10.000000,,2013-01-14 22:33:00,
2013-01-14 22:43:00,37.0,36.0,-100.00,ESE,110,4.0,8.0,98,0.10,,,-99.99,10.000000,,2013-01-14 22:43:00,
2013-01-14 22:53:00,37.0,36.0,-100.00,ESE,110,4.0,8.0,98,0.10,,,-99.99,10.000000,,2013-01-14 22:53:00,
2013-01-14 23:03:00,37.0,36.0,-100.00,ESE,110,4.0,8.0,98,0.10,,,-99.99,10.000000,,2013-01-14 23:03:00,
2013-01-14 23:11:00,35.0,34.0,-100.00,SE,125,7.0,12.0,97,0.04,,,0.89,1.000000,,2013-01-14 23:11:00,
2013-01-14 23:33:00,35.0,34.0,-100.00,SE,125,7.0,12.0,97,0.04,,,0.89,1.000000,,2013-01-14 23:33:00,
2013-01-14 23:43:00,35.0,34.0,-100.00,SE,125,7.0,12.0,97,0.04,,,0.89,1.000000,,2013-01-14 23:43:00,
2013-01-14 23:53:00,35.0,34.0,-100.00,SE,125,7.0,12.0,97,0.04,,,0.89,1.000000,,2013-01-14 23:53:00,